sensor_id;sensor_type;location;lat;lon;timestamp;P1;durP1;ratioP1;P2;durP2;ratioP2
49378;SDS011;35254;47.990;-1.608;2023-01-29T00:02:16;5.55;;;2.25;;
49378;SDS011;35254;47.990;-1.608;2023-01-29T00:04:41;4.47;;;2.20;;
49378;SDS011;35254;47.990;-1.608;2023-01-29T00:07:07;5.38;;;2.00;;
49378;SDS011;35254;47.990;-1.608;2023-01-29T00:09:32;6.90;;;2.20;;
49378;SDS011;35254;47.990;-1.608;2023-01-29T00:11:58;9.32;;;2.85;;
49378;SDS011;35254;47.990;-1.608;2023-01-29T00:14:24;3.88;;;2.05;;
49378;SDS011;35254;47.990;-1.608;2023-01-29T00:16:51;3.85;;;1.92;;
49378;SDS011;35254;47.990;-1.608;2023-01-29T00:19:17;8.07;;;2.22;;
49378;SDS011;35254;47.990;-1.608;2023-01-29T00:21:43;1.42;;;1.33;;
49378;SDS011;35254;47.990;-1.608;2023-01-29T00:24:09;8.55;;;1.58;;
49378;SDS011;35254;47.990;-1.608;2023-01-29T00:26:35;3.50;;;1.70;;
49378;SDS011;35254;47.990;-1.608;2023-01-29T00:29:03;2.47;;;2.28;;
49378;SDS011;35254;47.990;-1.608;2023-01-29T00:31:29;2.70;;;1.50;;
49378;SDS011;35254;47.990;-1.608;2023-01-29T00:33:54;6.55;;;2.03;;
49378;SDS011;35254;47.990;-1.608;2023-01-29T00:36:21;2.97;;;1.55;;
49378;SDS011;35254;47.990;-1.608;2023-01-29T00:38:56;2.78;;;2.17;;
49378;SDS011;35254;47.990;-1.608;2023-01-29T00:41:25;4.60;;;1.67;;
49378;SDS011;35254;47.990;-1.608;2023-01-29T00:44:11;7.97;;;2.47;;
49378;SDS011;35254;47.990;-1.608;2023-01-29T00:46:55;4.03;;;1.73;;
49378;SDS011;35254;47.990;-1.608;2023-01-29T00:49:21;6.25;;;1.77;;
49378;SDS011;35254;47.990;-1.608;2023-01-29T00:51:47;5.88;;;1.92;;
49378;SDS011;35254;47.990;-1.608;2023-01-29T00:54:33;8.48;;;2.22;;
49378;SDS011;35254;47.990;-1.608;2023-01-29T00:56:59;3.83;;;2.38;;
49378;SDS011;35254;47.990;-1.608;2023-01-29T00:59:26;4.00;;;2.25;;
49378;SDS011;35254;47.990;-1.608;2023-01-29T01:01:51;4.60;;;2.00;;
49378;SDS011;35254;47.990;-1.608;2023-01-29T01:04:35;6.60;;;2.35;;
49378;SDS011;35254;47.990;-1.608;2023-01-29T01:07:01;3.33;;;1.65;;
49378;SDS011;35254;47.990;-1.608;2023-01-29T01:09:27;3.05;;;1.60;;
49378;SDS011;35254;47.990;-1.608;2023-01-29T01:12:11;6.88;;;1.90;;
49378;SDS011;35254;47.990;-1.608;2023-01-29T01:14:37;6.55;;;2.05;;
49378;SDS011;35254;47.990;-1.608;2023-01-29T01:17:02;7.20;;;1.98;;
49378;SDS011;35254;47.990;-1.608;2023-01-29T01:19:28;3.35;;;1.58;;
49378;SDS011;35254;47.990;-1.608;2023-01-29T01:21:53;5.75;;;2.10;;
49378;SDS011;35254;47.990;-1.608;2023-01-29T01:24:19;2.95;;;1.92;;
49378;SDS011;35254;47.990;-1.608;2023-01-29T01:26:45;4.50;;;1.70;;
49378;SDS011;35254;47.990;-1.608;2023-01-29T01:29:10;5.40;;;1.42;;
49378;SDS011;35254;47.990;-1.608;2023-01-29T01:31:36;4.32;;;1.45;;
49378;SDS011;35254;47.990;-1.608;2023-01-29T01:34:02;3.17;;;1.73;;
49378;SDS011;35254;47.990;-1.608;2023-01-29T01:36:28;3.85;;;1.35;;
49378;SDS011;35254;47.990;-1.608;2023-01-29T01:38:56;2.15;;;1.48;;
49378;SDS011;35254;47.990;-1.608;2023-01-29T01:41:22;2.15;;;1.38;;
49378;SDS011;35254;47.990;-1.608;2023-01-29T01:43:52;3.50;;;1.80;;
49378;SDS011;35254;47.990;-1.608;2023-01-29T01:46:19;4.85;;;1.60;;
49378;SDS011;35254;47.990;-1.608;2023-01-29T01:48:47;4.85;;;1.40;;
49378;SDS011;35254;47.990;-1.608;2023-01-29T01:51:17;5.22;;;1.23;;
49378;SDS011;35254;47.990;-1.608;2023-01-29T01:53:51;4.88;;;1.35;;
49378;SDS011;35254;47.990;-1.608;2023-01-29T01:56:29;2.88;;;1.70;;
49378;SDS011;35254;47.990;-1.608;2023-01-29T01:59:02;2.65;;;1.52;;
49378;SDS011;35254;47.990;-1.608;2023-01-29T02:01:30;2.85;;;1.40;;
49378;SDS011;35254;47.990;-1.608;2023-01-29T02:03:58;2.33;;;0.90;;
49378;SDS011;35254;47.990;-1.608;2023-01-29T02:06:51;5.20;;;1.10;;
49378;SDS011;35254;47.990;-1.608;2023-01-29T02:09:41;2.80;;;1.30;;
49378;SDS011;35254;47.990;-1.608;2023-01-29T02:12:13;3.60;;;1.80;;
49378;SDS011;35254;47.990;-1.608;2023-01-29T02:14:41;2.10;;;1.30;;
49378;SDS011;35254;47.990;-1.608;2023-01-29T02:17:08;1.75;;;1.25;;
49378;SDS011;35254;47.990;-1.608;2023-01-29T02:25:28;1.70;;;1.08;;
49378;SDS011;35254;47.990;-1.608;2023-01-29T02:33:37;1.63;;;1.10;;
49378;SDS011;35254;47.990;-1.608;2023-01-29T02:36:35;1.73;;;1.20;;
49378;SDS011;35254;47.990;-1.608;2023-01-29T02:41:57;1.55;;;1.38;;
49378;SDS011;35254;47.990;-1.608;2023-01-29T02:47:13;1.73;;;0.93;;
49378;SDS011;35254;47.990;-1.608;2023-01-29T02:49:59;1.08;;;0.80;;
49378;SDS011;35254;47.990;-1.608;2023-01-29T02:52:38;2.70;;;1.20;;
49378;SDS011;35254;47.990;-1.608;2023-01-29T02:55:12;2.00;;;1.45;;
49378;SDS011;35254;47.990;-1.608;2023-01-29T02:58:15;3.10;;;1.15;;
49378;SDS011;35254;47.990;-1.608;2023-01-29T03:00:51;5.20;;;1.33;;
49378;SDS011;35254;47.990;-1.608;2023-01-29T03:03:20;1.00;;;1.00;;
49378;SDS011;35254;47.990;-1.608;2023-01-29T03:11:04;2.05;;;1.10;;
49378;SDS011;35254;47.990;-1.608;2023-01-29T03:16:05;1.98;;;1.10;;
49378;SDS011;35254;47.990;-1.608;2023-01-29T03:18:45;2.72;;;0.98;;
49378;SDS011;35254;47.990;-1.608;2023-01-29T03:21:28;0.75;;;0.75;;
49378;SDS011;35254;47.990;-1.608;2023-01-29T03:24:21;1.00;;;0.93;;
49378;SDS011;35254;47.990;-1.608;2023-01-29T03:27:30;0.90;;;0.80;;
49378;SDS011;35254;47.990;-1.608;2023-01-29T03:30:19;1.17;;;1.08;;
49378;SDS011;35254;47.990;-1.608;2023-01-29T03:33:07;2.08;;;0.85;;
49378;SDS011;35254;47.990;-1.608;2023-01-29T03:35:37;1.15;;;0.80;;
49378;SDS011;35254;47.990;-1.608;2023-01-29T03:38:08;1.35;;;1.00;;
49378;SDS011;35254;47.990;-1.608;2023-01-29T03:40:46;3.13;;;1.73;;
49378;SDS011;35254;47.990;-1.608;2023-01-29T03:46:02;2.88;;;1.00;;
49378;SDS011;35254;47.990;-1.608;2023-01-29T03:48:39;2.20;;;0.82;;
49378;SDS011;35254;47.990;-1.608;2023-01-29T03:54:05;1.17;;;0.80;;
49378;SDS011;35254;47.990;-1.608;2023-01-29T03:56:55;1.15;;;0.88;;
49378;SDS011;35254;47.990;-1.608;2023-01-29T04:05:21;7.68;;;1.13;;
49378;SDS011;35254;47.990;-1.608;2023-01-29T04:07:53;2.55;;;0.93;;
49378;SDS011;35254;47.990;-1.608;2023-01-29T04:10:27;3.53;;;0.80;;
49378;SDS011;35254;47.990;-1.608;2023-01-29T04:12:59;1.65;;;0.75;;
49378;SDS011;35254;47.990;-1.608;2023-01-29T04:15:29;2.17;;;1.20;;
49378;SDS011;35254;47.990;-1.608;2023-01-29T04:17:57;1.52;;;0.90;;
49378;SDS011;35254;47.990;-1.608;2023-01-29T04:20:23;1.90;;;1.13;;
49378;SDS011;35254;47.990;-1.608;2023-01-29T04:22:50;0.77;;;0.70;;
49378;SDS011;35254;47.990;-1.608;2023-01-29T04:25:18;1.08;;;0.52;;
49378;SDS011;35254;47.990;-1.608;2023-01-29T04:33:03;1.88;;;0.90;;
49378;SDS011;35254;47.990;-1.608;2023-01-29T04:35:40;1.77;;;0.90;;
49378;SDS011;35254;47.990;-1.608;2023-01-29T04:41:18;1.80;;;1.10;;
49378;SDS011;35254;47.990;-1.608;2023-01-29T04:43:59;0.68;;;0.68;;
49378;SDS011;35254;47.990;-1.608;2023-01-29T04:49:17;3.97;;;0.88;;
49378;SDS011;35254;47.990;-1.608;2023-01-29T04:52:11;1.25;;;0.70;;
49378;SDS011;35254;47.990;-1.608;2023-01-29T04:55:00;0.63;;;0.50;;
49378;SDS011;35254;47.990;-1.608;2023-01-29T05:00:32;1.02;;;0.80;;
49378;SDS011;35254;47.990;-1.608;2023-01-29T05:03:02;1.75;;;0.80;;
49378;SDS011;35254;47.990;-1.608;2023-01-29T05:05:30;1.05;;;0.60;;
49378;SDS011;35254;47.990;-1.608;2023-01-29T05:07:56;1.00;;;0.82;;
49378;SDS011;35254;47.990;-1.608;2023-01-29T05:10:23;1.08;;;0.70;;
49378;SDS011;35254;47.990;-1.608;2023-01-29T05:12:51;2.08;;;0.80;;
49378;SDS011;35254;47.990;-1.608;2023-01-29T05:15:23;1.58;;;0.80;;
49378;SDS011;35254;47.990;-1.608;2023-01-29T05:17:54;1.13;;;0.63;;
49378;SDS011;35254;47.990;-1.608;2023-01-29T05:20:27;1.13;;;0.73;;
49378;SDS011;35254;47.990;-1.608;2023-01-29T05:22:56;0.70;;;0.70;;
49378;SDS011;35254;47.990;-1.608;2023-01-29T05:25:24;2.25;;;0.70;;
49378;SDS011;35254;47.990;-1.608;2023-01-29T05:27:51;0.60;;;0.60;;
49378;SDS011;35254;47.990;-1.608;2023-01-29T05:30:40;2.67;;;0.60;;
49378;SDS011;35254;47.990;-1.608;2023-01-29T05:33:14;1.95;;;0.60;;
49378;SDS011;35254;47.990;-1.608;2023-01-29T05:35:44;0.68;;;0.68;;
49378;SDS011;35254;47.990;-1.608;2023-01-29T05:38:11;0.73;;;0.50;;
49378;SDS011;35254;47.990;-1.608;2023-01-29T05:40:37;3.15;;;1.05;;
49378;SDS011;35254;47.990;-1.608;2023-01-29T05:43:03;0.77;;;0.70;;
49378;SDS011;35254;47.990;-1.608;2023-01-29T05:45:30;0.63;;;0.63;;
49378;SDS011;35254;47.990;-1.608;2023-01-29T05:47:56;2.28;;;0.63;;
49378;SDS011;35254;47.990;-1.608;2023-01-29T05:50:23;4.47;;;1.42;;
49378;SDS011;35254;47.990;-1.608;2023-01-29T05:53:00;1.42;;;0.60;;
49378;SDS011;35254;47.990;-1.608;2023-01-29T05:55:26;0.55;;;0.55;;
49378;SDS011;35254;47.990;-1.608;2023-01-29T05:57:53;0.50;;;0.50;;
49378;SDS011;35254;47.990;-1.608;2023-01-29T06:00:19;1.20;;;0.60;;
49378;SDS011;35254;47.990;-1.608;2023-01-29T06:02:45;2.10;;;0.70;;
49378;SDS011;35254;47.990;-1.608;2023-01-29T06:05:11;0.88;;;0.80;;
49378;SDS011;35254;47.990;-1.608;2023-01-29T06:07:37;2.08;;;0.70;;
49378;SDS011;35254;47.990;-1.608;2023-01-29T06:10:04;0.52;;;0.40;;
49378;SDS011;35254;47.990;-1.608;2023-01-29T06:12:30;0.50;;;0.50;;
49378;SDS011;35254;47.990;-1.608;2023-01-29T06:14:56;1.08;;;0.60;;
49378;SDS011;35254;47.990;-1.608;2023-01-29T06:17:21;1.17;;;0.60;;
49378;SDS011;35254;47.990;-1.608;2023-01-29T06:19:47;1.00;;;1.00;;
49378;SDS011;35254;47.990;-1.608;2023-01-29T06:22:12;2.20;;;0.70;;
49378;SDS011;35254;47.990;-1.608;2023-01-29T06:24:38;0.75;;;0.75;;
49378;SDS011;35254;47.990;-1.608;2023-01-29T06:27:04;1.35;;;0.43;;
49378;SDS011;35254;47.990;-1.608;2023-01-29T06:29:29;1.27;;;0.52;;
49378;SDS011;35254;47.990;-1.608;2023-01-29T06:31:55;1.50;;;0.50;;
49378;SDS011;35254;47.990;-1.608;2023-01-29T06:34:20;1.20;;;0.52;;
49378;SDS011;35254;47.990;-1.608;2023-01-29T06:36:46;1.42;;;0.60;;
49378;SDS011;35254;47.990;-1.608;2023-01-29T06:39:12;1.08;;;0.70;;
49378;SDS011;35254;47.990;-1.608;2023-01-29T06:41:37;2.42;;;0.85;;
49378;SDS011;35254;47.990;-1.608;2023-01-29T06:44:03;0.73;;;0.40;;
49378;SDS011;35254;47.990;-1.608;2023-01-29T06:46:29;0.85;;;0.57;;
49378;SDS011;35254;47.990;-1.608;2023-01-29T06:48:56;0.80;;;0.60;;
49378;SDS011;35254;47.990;-1.608;2023-01-29T06:51:24;2.13;;;0.50;;
49378;SDS011;35254;47.990;-1.608;2023-01-29T06:53:49;2.20;;;0.55;;
49378;SDS011;35254;47.990;-1.608;2023-01-29T06:56:15;1.17;;;0.60;;
49378;SDS011;35254;47.990;-1.608;2023-01-29T06:58:41;1.13;;;0.63;;
49378;SDS011;35254;47.990;-1.608;2023-01-29T07:01:08;0.80;;;0.60;;
49378;SDS011;35254;47.990;-1.608;2023-01-29T07:03:35;0.95;;;0.50;;
49378;SDS011;35254;47.990;-1.608;2023-01-29T07:06:01;1.67;;;0.80;;
49378;SDS011;35254;47.990;-1.608;2023-01-29T07:08:27;1.05;;;0.70;;
49378;SDS011;35254;47.990;-1.608;2023-01-29T07:10:53;0.60;;;0.60;;
49378;SDS011;35254;47.990;-1.608;2023-01-29T07:13:26;0.82;;;0.73;;
49378;SDS011;35254;47.990;-1.608;2023-01-29T07:15:52;1.23;;;0.60;;
49378;SDS011;35254;47.990;-1.608;2023-01-29T07:18:18;2.70;;;0.77;;
49378;SDS011;35254;47.990;-1.608;2023-01-29T07:20:44;2.13;;;1.00;;
49378;SDS011;35254;47.990;-1.608;2023-01-29T07:23:09;3.53;;;0.60;;
49378;SDS011;35254;47.990;-1.608;2023-01-29T07:25:37;1.38;;;0.68;;
49378;SDS011;35254;47.990;-1.608;2023-01-29T07:28:03;0.60;;;0.52;;
49378;SDS011;35254;47.990;-1.608;2023-01-29T07:30:30;1.35;;;0.85;;
49378;SDS011;35254;47.990;-1.608;2023-01-29T07:33:00;1.50;;;0.77;;
49378;SDS011;35254;47.990;-1.608;2023-01-29T07:35:29;0.80;;;0.75;;
49378;SDS011;35254;47.990;-1.608;2023-01-29T07:37:55;1.13;;;0.60;;
49378;SDS011;35254;47.990;-1.608;2023-01-29T07:40:21;2.45;;;0.70;;
49378;SDS011;35254;47.990;-1.608;2023-01-29T07:42:47;1.05;;;0.60;;
49378;SDS011;35254;47.990;-1.608;2023-01-29T07:45:12;1.48;;;0.90;;
49378;SDS011;35254;47.990;-1.608;2023-01-29T07:47:38;1.40;;;0.75;;
49378;SDS011;35254;47.990;-1.608;2023-01-29T07:50:04;0.50;;;0.50;;
49378;SDS011;35254;47.990;-1.608;2023-01-29T07:52:30;1.45;;;0.90;;
49378;SDS011;35254;47.990;-1.608;2023-01-29T07:54:57;1.42;;;1.00;;
49378;SDS011;35254;47.990;-1.608;2023-01-29T07:57:23;1.45;;;0.85;;
49378;SDS011;35254;47.990;-1.608;2023-01-29T07:59:48;2.65;;;0.70;;
49378;SDS011;35254;47.990;-1.608;2023-01-29T08:02:14;1.20;;;0.60;;
49378;SDS011;35254;47.990;-1.608;2023-01-29T08:04:40;0.68;;;0.60;;
49378;SDS011;35254;47.990;-1.608;2023-01-29T08:07:05;1.05;;;0.70;;
49378;SDS011;35254;47.990;-1.608;2023-01-29T08:09:33;0.82;;;0.60;;
49378;SDS011;35254;47.990;-1.608;2023-01-29T08:11:59;1.60;;;0.60;;
49378;SDS011;35254;47.990;-1.608;2023-01-29T08:14:24;1.52;;;0.75;;
49378;SDS011;35254;47.990;-1.608;2023-01-29T08:16:50;1.63;;;0.73;;
49378;SDS011;35254;47.990;-1.608;2023-01-29T08:19:16;0.68;;;0.60;;
49378;SDS011;35254;47.990;-1.608;2023-01-29T08:21:42;0.98;;;0.90;;
49378;SDS011;35254;47.990;-1.608;2023-01-29T08:24:07;1.27;;;0.80;;
49378;SDS011;35254;47.990;-1.608;2023-01-29T08:26:33;3.55;;;0.90;;
49378;SDS011;35254;47.990;-1.608;2023-01-29T08:28:59;0.70;;;0.68;;
49378;SDS011;35254;47.990;-1.608;2023-01-29T08:31:24;2.22;;;0.90;;
49378;SDS011;35254;47.990;-1.608;2023-01-29T08:33:52;0.88;;;0.82;;
49378;SDS011;35254;47.990;-1.608;2023-01-29T08:36:18;3.97;;;0.90;;
49378;SDS011;35254;47.990;-1.608;2023-01-29T08:38:43;0.88;;;0.80;;
49378;SDS011;35254;47.990;-1.608;2023-01-29T08:41:09;0.98;;;0.90;;
49378;SDS011;35254;47.990;-1.608;2023-01-29T08:43:34;2.00;;;0.77;;
49378;SDS011;35254;47.990;-1.608;2023-01-29T08:46:03;2.38;;;0.70;;
49378;SDS011;35254;47.990;-1.608;2023-01-29T08:48:30;0.52;;;0.52;;
49378;SDS011;35254;47.990;-1.608;2023-01-29T08:50:56;1.98;;;1.25;;
49378;SDS011;35254;47.990;-1.608;2023-01-29T08:53:23;0.73;;;0.73;;
49378;SDS011;35254;47.990;-1.608;2023-01-29T08:55:50;1.75;;;0.70;;
49378;SDS011;35254;47.990;-1.608;2023-01-29T08:58:15;2.78;;;1.40;;
49378;SDS011;35254;47.990;-1.608;2023-01-29T09:00:41;1.63;;;0.93;;
49378;SDS011;35254;47.990;-1.608;2023-01-29T09:03:07;1.42;;;0.80;;
49378;SDS011;35254;47.990;-1.608;2023-01-29T09:05:34;3.28;;;1.10;;
49378;SDS011;35254;47.990;-1.608;2023-01-29T09:08:01;2.28;;;1.38;;
49378;SDS011;35254;47.990;-1.608;2023-01-29T09:10:27;2.25;;;1.38;;
49378;SDS011;35254;47.990;-1.608;2023-01-29T09:12:52;4.13;;;1.05;;
49378;SDS011;35254;47.990;-1.608;2023-01-29T09:15:18;2.35;;;1.38;;
49378;SDS011;35254;47.990;-1.608;2023-01-29T09:17:43;4.53;;;1.25;;
49378;SDS011;35254;47.990;-1.608;2023-01-29T09:20:09;1.95;;;0.75;;
49378;SDS011;35254;47.990;-1.608;2023-01-29T09:22:35;3.03;;;1.15;;
49378;SDS011;35254;47.990;-1.608;2023-01-29T09:25:01;1.48;;;1.00;;
49378;SDS011;35254;47.990;-1.608;2023-01-29T09:27:27;2.65;;;1.50;;
49378;SDS011;35254;47.990;-1.608;2023-01-29T09:29:53;1.73;;;1.00;;
49378;SDS011;35254;47.990;-1.608;2023-01-29T09:32:18;2.58;;;1.20;;
49378;SDS011;35254;47.990;-1.608;2023-01-29T09:34:44;1.08;;;0.98;;
49378;SDS011;35254;47.990;-1.608;2023-01-29T09:37:09;1.42;;;0.90;;
49378;SDS011;35254;47.990;-1.608;2023-01-29T09:39:35;0.90;;;0.80;;
49378;SDS011;35254;47.990;-1.608;2023-01-29T09:47:34;8.32;;;1.10;;
49378;SDS011;35254;47.990;-1.608;2023-01-29T09:50:17;2.15;;;0.90;;
49378;SDS011;35254;47.990;-1.608;2023-01-29T09:53:16;4.57;;;0.90;;
49378;SDS011;35254;47.990;-1.608;2023-01-29T09:55:49;7.78;;;1.00;;
49378;SDS011;35254;47.990;-1.608;2023-01-29T09:58:20;1.27;;;0.70;;
49378;SDS011;35254;47.990;-1.608;2023-01-29T10:06:09;4.88;;;1.40;;
49378;SDS011;35254;47.990;-1.608;2023-01-29T10:14:38;2.47;;;0.82;;
49378;SDS011;35254;47.990;-1.608;2023-01-29T10:25:04;1.33;;;0.90;;
49378;SDS011;35254;47.990;-1.608;2023-01-29T10:27:35;1.42;;;0.85;;
49378;SDS011;35254;47.990;-1.608;2023-01-29T10:30:16;3.33;;;1.00;;
49378;SDS011;35254;47.990;-1.608;2023-01-29T10:32:53;1.67;;;1.17;;
49378;SDS011;35254;47.990;-1.608;2023-01-29T10:35:23;1.17;;;1.08;;
49378;SDS011;35254;47.990;-1.608;2023-01-29T10:37:53;5.38;;;1.02;;
49378;SDS011;35254;47.990;-1.608;2023-01-29T10:40:24;5.78;;;1.10;;
49378;SDS011;35254;47.990;-1.608;2023-01-29T10:43:05;4.97;;;1.05;;
49378;SDS011;35254;47.990;-1.608;2023-01-29T10:45:53;3.17;;;0.90;;
49378;SDS011;35254;47.990;-1.608;2023-01-29T10:56:38;1.67;;;0.77;;
49378;SDS011;35254;47.990;-1.608;2023-01-29T11:01:58;2.10;;;0.80;;
49378;SDS011;35254;47.990;-1.608;2023-01-29T11:04:25;1.35;;;0.82;;
49378;SDS011;35254;47.990;-1.608;2023-01-29T11:06:52;2.17;;;0.90;;
49378;SDS011;35254;47.990;-1.608;2023-01-29T11:09:29;2.75;;;0.70;;
49378;SDS011;35254;47.990;-1.608;2023-01-29T11:12:00;0.82;;;0.80;;
49378;SDS011;35254;47.990;-1.608;2023-01-29T11:14:54;1.42;;;1.02;;
49378;SDS011;35254;47.990;-1.608;2023-01-29T11:17:30;0.77;;;0.77;;
49378;SDS011;35254;47.990;-1.608;2023-01-29T11:19:56;1.17;;;1.00;;
49378;SDS011;35254;47.990;-1.608;2023-01-29T11:22:26;1.40;;;0.98;;
49378;SDS011;35254;47.990;-1.608;2023-01-29T11:27:34;2.05;;;1.10;;
49378;SDS011;35254;47.990;-1.608;2023-01-29T11:30:13;3.67;;;1.02;;
49378;SDS011;35254;47.990;-1.608;2023-01-29T11:32:42;0.85;;;0.70;;
49378;SDS011;35254;47.990;-1.608;2023-01-29T11:37:41;5.35;;;0.93;;
49378;SDS011;35254;47.990;-1.608;2023-01-29T11:42:43;4.70;;;0.90;;
49378;SDS011;35254;47.990;-1.608;2023-01-29T11:47:52;1.88;;;0.95;;
49378;SDS011;35254;47.990;-1.608;2023-01-29T11:50:20;2.47;;;1.05;;
49378;SDS011;35254;47.990;-1.608;2023-01-29T11:52:49;2.30;;;1.40;;
49378;SDS011;35254;47.990;-1.608;2023-01-29T11:55:17;3.92;;;1.30;;
49378;SDS011;35254;47.990;-1.608;2023-01-29T12:00:23;3.13;;;0.80;;
49378;SDS011;35254;47.990;-1.608;2023-01-29T12:05:21;1.60;;;0.73;;
49378;SDS011;35254;47.990;-1.608;2023-01-29T12:07:54;2.55;;;1.15;;
49378;SDS011;35254;47.990;-1.608;2023-01-29T12:13:04;2.55;;;1.13;;
49378;SDS011;35254;47.990;-1.608;2023-01-29T12:15:34;5.88;;;1.38;;
49378;SDS011;35254;47.990;-1.608;2023-01-29T12:18:02;5.35;;;1.08;;
49378;SDS011;35254;47.990;-1.608;2023-01-29T12:20:51;2.05;;;1.00;;
49378;SDS011;35254;47.990;-1.608;2023-01-29T12:26:13;2.38;;;0.77;;
49378;SDS011;35254;47.990;-1.608;2023-01-29T12:29:06;2.40;;;1.20;;
49378;SDS011;35254;47.990;-1.608;2023-01-29T12:31:56;1.40;;;1.08;;
49378;SDS011;35254;47.990;-1.608;2023-01-29T12:34:26;11.35;;;3.25;;
49378;SDS011;35254;47.990;-1.608;2023-01-29T12:37:18;2.13;;;1.10;;
49378;SDS011;35254;47.990;-1.608;2023-01-29T12:39:48;4.50;;;0.95;;
49378;SDS011;35254;47.990;-1.608;2023-01-29T12:42:26;4.03;;;1.02;;
49378;SDS011;35254;47.990;-1.608;2023-01-29T12:45:08;1.67;;;1.00;;
49378;SDS011;35254;47.990;-1.608;2023-01-29T12:50:25;3.10;;;0.90;;
49378;SDS011;35254;47.990;-1.608;2023-01-29T12:52:58;2.47;;;0.88;;
49378;SDS011;35254;47.990;-1.608;2023-01-29T12:55:29;2.33;;;1.50;;
49378;SDS011;35254;47.990;-1.608;2023-01-29T12:57:57;4.15;;;1.50;;
49378;SDS011;35254;47.990;-1.608;2023-01-29T13:05:50;2.63;;;1.13;;
49378;SDS011;35254;47.990;-1.608;2023-01-29T13:08:24;11.00;;;1.88;;
49378;SDS011;35254;47.990;-1.608;2023-01-29T13:10:56;7.45;;;1.38;;
49378;SDS011;35254;47.990;-1.608;2023-01-29T13:16:21;3.40;;;1.30;;
49378;SDS011;35254;47.990;-1.608;2023-01-29T13:18:52;7.18;;;1.80;;
49378;SDS011;35254;47.990;-1.608;2023-01-29T13:21:25;5.00;;;1.70;;
49378;SDS011;35254;47.990;-1.608;2023-01-29T13:24:04;7.50;;;1.70;;
49378;SDS011;35254;47.990;-1.608;2023-01-29T13:26:36;7.95;;;1.60;;
49378;SDS011;35254;47.990;-1.608;2023-01-29T13:29:03;4.63;;;1.55;;
49378;SDS011;35254;47.990;-1.608;2023-01-29T13:31:31;9.07;;;1.55;;
49378;SDS011;35254;47.990;-1.608;2023-01-29T13:36:36;70.07;;;45.60;;
49378;SDS011;35254;47.990;-1.608;2023-01-29T13:39:13;65.20;;;44.75;;
49378;SDS011;35254;47.990;-1.608;2023-01-29T13:41:53;99.63;;;63.95;;
49378;SDS011;35254;47.990;-1.608;2023-01-29T13:44:27;82.00;;;46.75;;
49378;SDS011;35254;47.990;-1.608;2023-01-29T13:46:58;98.22;;;40.17;;
49378;SDS011;35254;47.990;-1.608;2023-01-29T13:57:55;44.92;;;17.90;;
49378;SDS011;35254;47.990;-1.608;2023-01-29T14:07:58;30.15;;;10.85;;
49378;SDS011;35254;47.990;-1.608;2023-01-29T14:10:24;24.05;;;10.45;;
49378;SDS011;35254;47.990;-1.608;2023-01-29T14:18:24;26.67;;;7.85;;
49378;SDS011;35254;47.990;-1.608;2023-01-29T14:21:01;15.10;;;6.57;;
49378;SDS011;35254;47.990;-1.608;2023-01-29T14:26:51;15.50;;;6.70;;
49378;SDS011;35254;47.990;-1.608;2023-01-29T14:35:09;8.55;;;4.35;;
49378;SDS011;35254;47.990;-1.608;2023-01-29T14:37:40;19.73;;;5.50;;
49378;SDS011;35254;47.990;-1.608;2023-01-29T14:45:31;22.48;;;6.35;;
49378;SDS011;35254;47.990;-1.608;2023-01-29T14:58:13;10.60;;;3.67;;
49378;SDS011;35254;47.990;-1.608;2023-01-29T15:01:14;15.57;;;5.20;;
49378;SDS011;35254;47.990;-1.608;2023-01-29T15:06:46;6.65;;;3.38;;
49378;SDS011;35254;47.990;-1.608;2023-01-29T15:09:21;9.20;;;2.90;;
49378;SDS011;35254;47.990;-1.608;2023-01-29T15:15:13;6.88;;;2.65;;
49378;SDS011;35254;47.990;-1.608;2023-01-29T15:18:19;5.97;;;2.90;;
49378;SDS011;35254;47.990;-1.608;2023-01-29T15:21:01;8.15;;;3.42;;
49378;SDS011;35254;47.990;-1.608;2023-01-29T15:23:37;7.70;;;3.00;;
49378;SDS011;35254;47.990;-1.608;2023-01-29T15:26:05;8.52;;;2.50;;
49378;SDS011;35254;47.990;-1.608;2023-01-29T15:28:33;6.30;;;2.83;;
49378;SDS011;35254;47.990;-1.608;2023-01-29T15:31:00;4.88;;;2.13;;
49378;SDS011;35254;47.990;-1.608;2023-01-29T15:33:29;6.38;;;2.72;;
49378;SDS011;35254;47.990;-1.608;2023-01-29T15:35:57;3.25;;;2.60;;
49378;SDS011;35254;47.990;-1.608;2023-01-29T15:38:25;3.15;;;2.35;;
49378;SDS011;35254;47.990;-1.608;2023-01-29T15:40:58;12.57;;;2.83;;
49378;SDS011;35254;47.990;-1.608;2023-01-29T15:43:26;3.03;;;2.05;;
49378;SDS011;35254;47.990;-1.608;2023-01-29T15:46:06;7.95;;;2.53;;
49378;SDS011;35254;47.990;-1.608;2023-01-29T15:48:38;5.55;;;4.93;;
49378;SDS011;35254;47.990;-1.608;2023-01-29T15:51:07;11.90;;;3.67;;
49378;SDS011;35254;47.990;-1.608;2023-01-29T15:56:39;7.13;;;3.05;;
49378;SDS011;35254;47.990;-1.608;2023-01-29T15:59:12;13.38;;;5.65;;
49378;SDS011;35254;47.990;-1.608;2023-01-29T16:01:47;4.88;;;3.00;;
49378;SDS011;35254;47.990;-1.608;2023-01-29T16:04:14;4.85;;;2.78;;
49378;SDS011;35254;47.990;-1.608;2023-01-29T16:06:44;7.60;;;3.13;;
49378;SDS011;35254;47.990;-1.608;2023-01-29T16:09:15;4.70;;;2.35;;
49378;SDS011;35254;47.990;-1.608;2023-01-29T16:11:44;4.85;;;2.72;;
49378;SDS011;35254;47.990;-1.608;2023-01-29T16:14:14;6.53;;;2.85;;
49378;SDS011;35254;47.990;-1.608;2023-01-29T16:16:44;5.38;;;3.05;;
49378;SDS011;35254;47.990;-1.608;2023-01-29T16:19:19;5.78;;;2.45;;
49378;SDS011;35254;47.990;-1.608;2023-01-29T16:21:49;4.72;;;2.33;;
49378;SDS011;35254;47.990;-1.608;2023-01-29T16:24:20;4.18;;;2.33;;
49378;SDS011;35254;47.990;-1.608;2023-01-29T16:26:48;4.25;;;2.30;;
49378;SDS011;35254;47.990;-1.608;2023-01-29T16:29:20;4.38;;;2.22;;
49378;SDS011;35254;47.990;-1.608;2023-01-29T16:31:49;4.43;;;2.20;;
49378;SDS011;35254;47.990;-1.608;2023-01-29T16:36:57;3.05;;;2.30;;
49378;SDS011;35254;47.990;-1.608;2023-01-29T16:39:36;7.00;;;2.00;;
49378;SDS011;35254;47.990;-1.608;2023-01-29T16:44:45;5.72;;;2.15;;
49378;SDS011;35254;47.990;-1.608;2023-01-29T16:50:42;10.25;;;2.83;;
49378;SDS011;35254;47.990;-1.608;2023-01-29T16:55:24;4.63;;;2.05;;
49378;SDS011;35254;47.990;-1.608;2023-01-29T16:57:51;3.08;;;2.45;;
49378;SDS011;35254;47.990;-1.608;2023-01-29T17:00:25;3.88;;;2.15;;
49378;SDS011;35254;47.990;-1.608;2023-01-29T17:02:59;6.53;;;2.60;;
49378;SDS011;35254;47.990;-1.608;2023-01-29T17:05:30;5.47;;;2.47;;
49378;SDS011;35254;47.990;-1.608;2023-01-29T17:07:58;4.43;;;2.42;;
49378;SDS011;35254;47.990;-1.608;2023-01-29T17:10:24;3.42;;;2.45;;
49378;SDS011;35254;47.990;-1.608;2023-01-29T17:12:56;4.28;;;2.63;;
49378;SDS011;35254;47.990;-1.608;2023-01-29T17:15:34;2.50;;;2.25;;
49378;SDS011;35254;47.990;-1.608;2023-01-29T17:18:10;2.88;;;2.05;;
49378;SDS011;35254;47.990;-1.608;2023-01-29T17:20:44;5.28;;;2.42;;
49378;SDS011;35254;47.990;-1.608;2023-01-29T17:23:10;5.28;;;2.40;;
49378;SDS011;35254;47.990;-1.608;2023-01-29T17:25:35;2.40;;;2.20;;
49378;SDS011;35254;47.990;-1.608;2023-01-29T17:28:01;3.05;;;2.30;;
49378;SDS011;35254;47.990;-1.608;2023-01-29T17:30:29;6.53;;;2.80;;
49378;SDS011;35254;47.990;-1.608;2023-01-29T17:32:57;7.22;;;2.47;;
49378;SDS011;35254;47.990;-1.608;2023-01-29T17:35:23;4.68;;;3.20;;
49378;SDS011;35254;47.990;-1.608;2023-01-29T17:37:49;10.80;;;3.60;;
49378;SDS011;35254;47.990;-1.608;2023-01-29T17:42:45;2.60;;;2.40;;
49378;SDS011;35254;47.990;-1.608;2023-01-29T17:45:11;6.68;;;2.88;;
49378;SDS011;35254;47.990;-1.608;2023-01-29T17:47:36;3.35;;;2.42;;
49378;SDS011;35254;47.990;-1.608;2023-01-29T17:50:05;4.18;;;3.05;;
49378;SDS011;35254;47.990;-1.608;2023-01-29T17:52:44;3.22;;;2.50;;
49378;SDS011;35254;47.990;-1.608;2023-01-29T17:55:10;4.50;;;2.78;;
49378;SDS011;35254;47.990;-1.608;2023-01-29T17:57:36;3.45;;;2.30;;
49378;SDS011;35254;47.990;-1.608;2023-01-29T18:00:01;4.47;;;2.80;;
49378;SDS011;35254;47.990;-1.608;2023-01-29T18:02:29;3.05;;;2.75;;
49378;SDS011;35254;47.990;-1.608;2023-01-29T18:04:56;6.53;;;3.97;;